Jefferson, Ohio
Current Conditions -  °F | °C
As of 11:53 AM on Saturday 22 Nov 2014 (Local Time) from KHZY Reporting Station
Overcast Overcast  
Wind Chill: 25°   Ceiling: 800
Heat Index: 34°   Visibility: 8mi
Dew Point: 31°   Wind: 13mph
Humidity: 89%   Direction: 190°S
Pressure: 30.13"   Gusts: NA
Location:  41.74°N, 80.77°W
Report Text: KHZY 221653Z AUTO 19011KT 8SM OVC008 01/M01 A3013 RMK AO2 FZRAE12 SLP214 P0000 I1001 T00111006
Loading
Personal Weather Stations






























Interactive Weather Map New forecast layout! Learn more

10-Day Weather Forecast

Advertisements
Track Severe Weather on mobile